sensor_id;sensor_type;location;lat;lon;timestamp;P1;durP1;ratioP1;P2;durP2;ratioP2
31692;SDS011;37436;53.230;6.614;2023-08-06T00:01:02;16.60;;;8.18;;
31692;SDS011;37436;53.230;6.614;2023-08-06T00:03:28;29.38;;;8.88;;
31692;SDS011;37436;53.230;6.614;2023-08-06T00:05:54;19.52;;;8.30;;
31692;SDS011;37436;53.230;6.614;2023-08-06T00:08:20;22.77;;;8.18;;
31692;SDS011;37436;53.230;6.614;2023-08-06T00:10:49;18.10;;;8.68;;
31692;SDS011;37436;53.230;6.614;2023-08-06T00:13:15;16.77;;;8.25;;
31692;SDS011;37436;53.230;6.614;2023-08-06T00:15:41;19.08;;;8.23;;
31692;SDS011;37436;53.230;6.614;2023-08-06T00:18:07;15.30;;;8.40;;
31692;SDS011;37436;53.230;6.614;2023-08-06T00:20:33;21.10;;;9.32;;
31692;SDS011;37436;53.230;6.614;2023-08-06T00:23:00;21.38;;;8.80;;
31692;SDS011;37436;53.230;6.614;2023-08-06T00:25:26;18.92;;;8.25;;
31692;SDS011;37436;53.230;6.614;2023-08-06T00:27:52;29.60;;;8.15;;
31692;SDS011;37436;53.230;6.614;2023-08-06T00:30:19;20.17;;;8.25;;
31692;SDS011;37436;53.230;6.614;2023-08-06T00:32:45;18.95;;;8.68;;
31692;SDS011;37436;53.230;6.614;2023-08-06T00:35:12;17.40;;;8.18;;
31692;SDS011;37436;53.230;6.614;2023-08-06T00:37:38;24.15;;;8.95;;
31692;SDS011;37436;53.230;6.614;2023-08-06T00:40:05;24.20;;;8.93;;
31692;SDS011;37436;53.230;6.614;2023-08-06T00:42:31;15.93;;;7.85;;
31692;SDS011;37436;53.230;6.614;2023-08-06T00:44:59;21.67;;;9.38;;
31692;SDS011;37436;53.230;6.614;2023-08-06T00:47:25;18.85;;;8.15;;
31692;SDS011;37436;53.230;6.614;2023-08-06T00:49:51;23.67;;;9.10;;
31692;SDS011;37436;53.230;6.614;2023-08-06T00:52:17;17.85;;;8.65;;
31692;SDS011;37436;53.230;6.614;2023-08-06T00:54:43;17.38;;;7.72;;
31692;SDS011;37436;53.230;6.614;2023-08-06T00:57:09;22.52;;;9.25;;
31692;SDS011;37436;53.230;6.614;2023-08-06T00:59:58;20.88;;;9.02;;
31692;SDS011;37436;53.230;6.614;2023-08-06T01:02:24;18.30;;;8.82;;
31692;SDS011;37436;53.230;6.614;2023-08-06T01:04:50;19.23;;;9.00;;
31692;SDS011;37436;53.230;6.614;2023-08-06T01:09:50;21.42;;;9.02;;
31692;SDS011;37436;53.230;6.614;2023-08-06T01:17:32;20.90;;;9.85;;
31692;SDS011;37436;53.230;6.614;2023-08-06T01:19:59;24.77;;;9.85;;
31692;SDS011;37436;53.230;6.614;2023-08-06T01:22:25;18.50;;;9.13;;
31692;SDS011;37436;53.230;6.614;2023-08-06T01:24:51;17.42;;;8.63;;
31692;SDS011;37436;53.230;6.614;2023-08-06T01:27:22;21.67;;;9.25;;
31692;SDS011;37436;53.230;6.614;2023-08-06T01:32:34;25.75;;;9.60;;
31692;SDS011;37436;53.230;6.614;2023-08-06T01:35:01;28.15;;;10.82;;
31692;SDS011;37436;53.230;6.614;2023-08-06T01:37:30;24.88;;;9.85;;
31692;SDS011;37436;53.230;6.614;2023-08-06T01:39:56;26.23;;;11.18;;
31692;SDS011;37436;53.230;6.614;2023-08-06T01:42:22;25.40;;;10.18;;
31692;SDS011;37436;53.230;6.614;2023-08-06T01:44:48;26.30;;;12.60;;
31692;SDS011;37436;53.230;6.614;2023-08-06T01:47:14;29.50;;;11.73;;
31692;SDS011;37436;53.230;6.614;2023-08-06T01:49:41;27.08;;;10.98;;
31692;SDS011;37436;53.230;6.614;2023-08-06T01:52:11;35.50;;;12.35;;
31692;SDS011;37436;53.230;6.614;2023-08-06T01:54:37;23.75;;;10.85;;
31692;SDS011;37436;53.230;6.614;2023-08-06T01:57:03;31.25;;;10.93;;
31692;SDS011;37436;53.230;6.614;2023-08-06T01:59:31;31.50;;;10.85;;
31692;SDS011;37436;53.230;6.614;2023-08-06T02:01:57;27.25;;;12.15;;
31692;SDS011;37436;53.230;6.614;2023-08-06T02:04:26;29.77;;;11.02;;
31692;SDS011;37436;53.230;6.614;2023-08-06T02:06:52;26.52;;;11.77;;
31692;SDS011;37436;53.230;6.614;2023-08-06T02:09:18;26.08;;;11.52;;
31692;SDS011;37436;53.230;6.614;2023-08-06T02:11:46;26.67;;;11.63;;
31692;SDS011;37436;53.230;6.614;2023-08-06T02:14:15;31.27;;;12.27;;
31692;SDS011;37436;53.230;6.614;2023-08-06T02:16:42;23.80;;;11.85;;
31692;SDS011;37436;53.230;6.614;2023-08-06T02:19:08;30.55;;;12.65;;
31692;SDS011;37436;53.230;6.614;2023-08-06T02:21:34;29.10;;;13.10;;
31692;SDS011;37436;53.230;6.614;2023-08-06T02:24:01;33.05;;;13.05;;
31692;SDS011;37436;53.230;6.614;2023-08-06T02:26:34;29.05;;;13.38;;
31692;SDS011;37436;53.230;6.614;2023-08-06T02:29:00;27.38;;;12.85;;
31692;SDS011;37436;53.230;6.614;2023-08-06T02:31:26;30.40;;;12.93;;
31692;SDS011;37436;53.230;6.614;2023-08-06T02:33:52;29.63;;;12.65;;
31692;SDS011;37436;53.230;6.614;2023-08-06T02:36:19;25.92;;;13.13;;
31692;SDS011;37436;53.230;6.614;2023-08-06T02:38:45;34.83;;;13.68;;
31692;SDS011;37436;53.230;6.614;2023-08-06T02:41:11;27.98;;;13.77;;
31692;SDS011;37436;53.230;6.614;2023-08-06T02:43:37;27.88;;;13.40;;
31692;SDS011;37436;53.230;6.614;2023-08-06T02:46:03;33.47;;;12.85;;
31692;SDS011;37436;53.230;6.614;2023-08-06T02:48:30;31.55;;;14.25;;
31692;SDS011;37436;53.230;6.614;2023-08-06T02:50:59;30.55;;;13.13;;
31692;SDS011;37436;53.230;6.614;2023-08-06T02:53:25;29.05;;;12.93;;
31692;SDS011;37436;53.230;6.614;2023-08-06T02:55:51;25.52;;;12.65;;
31692;SDS011;37436;53.230;6.614;2023-08-06T02:58:18;26.33;;;12.05;;
31692;SDS011;37436;53.230;6.614;2023-08-06T03:01:08;29.88;;;13.18;;
31692;SDS011;37436;53.230;6.614;2023-08-06T03:03:34;32.13;;;12.82;;
31692;SDS011;37436;53.230;6.614;2023-08-06T03:06:00;25.98;;;12.73;;
31692;SDS011;37436;53.230;6.614;2023-08-06T03:08:28;25.13;;;12.40;;
31692;SDS011;37436;53.230;6.614;2023-08-06T03:10:54;25.17;;;11.75;;
31692;SDS011;37436;53.230;6.614;2023-08-06T03:13:20;36.30;;;13.65;;
31692;SDS011;37436;53.230;6.614;2023-08-06T03:15:55;38.67;;;13.25;;
31692;SDS011;37436;53.230;6.614;2023-08-06T03:18:25;24.90;;;12.45;;
31692;SDS011;37436;53.230;6.614;2023-08-06T03:20:52;29.35;;;13.02;;
31692;SDS011;37436;53.230;6.614;2023-08-06T03:23:19;31.63;;;13.77;;
31692;SDS011;37436;53.230;6.614;2023-08-06T03:25:48;34.92;;;12.95;;
31692;SDS011;37436;53.230;6.614;2023-08-06T03:28:21;33.70;;;12.63;;
31692;SDS011;37436;53.230;6.614;2023-08-06T03:30:48;24.80;;;12.00;;
31692;SDS011;37436;53.230;6.614;2023-08-06T03:33:14;30.05;;;13.45;;
31692;SDS011;37436;53.230;6.614;2023-08-06T03:35:43;29.50;;;13.00;;
31692;SDS011;37436;53.230;6.614;2023-08-06T03:38:12;27.42;;;13.57;;
31692;SDS011;37436;53.230;6.614;2023-08-06T03:40:41;27.77;;;12.82;;
31692;SDS011;37436;53.230;6.614;2023-08-06T03:43:08;26.60;;;12.52;;
31692;SDS011;37436;53.230;6.614;2023-08-06T03:45:34;25.27;;;12.00;;
31692;SDS011;37436;53.230;6.614;2023-08-06T03:48:00;28.30;;;12.40;;
31692;SDS011;37436;53.230;6.614;2023-08-06T03:50:27;28.67;;;12.52;;
31692;SDS011;37436;53.230;6.614;2023-08-06T03:52:53;27.00;;;11.63;;
31692;SDS011;37436;53.230;6.614;2023-08-06T03:55:21;21.90;;;10.63;;
31692;SDS011;37436;53.230;6.614;2023-08-06T03:57:48;24.33;;;11.65;;
31692;SDS011;37436;53.230;6.614;2023-08-06T04:00:14;24.55;;;11.82;;
31692;SDS011;37436;53.230;6.614;2023-08-06T04:02:40;21.73;;;10.30;;
31692;SDS011;37436;53.230;6.614;2023-08-06T04:05:06;18.13;;;10.65;;
31692;SDS011;37436;53.230;6.614;2023-08-06T04:07:36;29.77;;;10.75;;
31692;SDS011;37436;53.230;6.614;2023-08-06T04:10:02;29.70;;;11.13;;
31692;SDS011;37436;53.230;6.614;2023-08-06T04:12:29;24.55;;;11.63;;
31692;SDS011;37436;53.230;6.614;2023-08-06T04:14:57;21.58;;;11.23;;
31692;SDS011;37436;53.230;6.614;2023-08-06T04:17:23;23.45;;;10.90;;
31692;SDS011;37436;53.230;6.614;2023-08-06T04:19:50;25.45;;;11.18;;
31692;SDS011;37436;53.230;6.614;2023-08-06T04:22:17;20.05;;;10.23;;
31692;SDS011;37436;53.230;6.614;2023-08-06T04:24:43;24.45;;;10.45;;
31692;SDS011;37436;53.230;6.614;2023-08-06T04:27:17;22.02;;;10.63;;
31692;SDS011;37436;53.230;6.614;2023-08-06T04:29:43;26.67;;;9.85;;
31692;SDS011;37436;53.230;6.614;2023-08-06T04:32:09;19.85;;;10.25;;
31692;SDS011;37436;53.230;6.614;2023-08-06T04:34:36;23.20;;;10.35;;
31692;SDS011;37436;53.230;6.614;2023-08-06T04:37:03;21.10;;;10.18;;
31692;SDS011;37436;53.230;6.614;2023-08-06T04:39:29;22.77;;;10.68;;
31692;SDS011;37436;53.230;6.614;2023-08-06T04:41:56;19.70;;;9.73;;
31692;SDS011;37436;53.230;6.614;2023-08-06T04:44:22;27.83;;;10.68;;
31692;SDS011;37436;53.230;6.614;2023-08-06T04:46:56;23.17;;;10.48;;
31692;SDS011;37436;53.230;6.614;2023-08-06T04:49:22;22.55;;;10.20;;
31692;SDS011;37436;53.230;6.614;2023-08-06T04:51:49;25.02;;;10.52;;
31692;SDS011;37436;53.230;6.614;2023-08-06T04:54:15;20.13;;;9.93;;
31692;SDS011;37436;53.230;6.614;2023-08-06T04:56:41;19.05;;;9.35;;
31692;SDS011;37436;53.230;6.614;2023-08-06T04:59:08;17.42;;;9.13;;
31692;SDS011;37436;53.230;6.614;2023-08-06T05:01:34;17.58;;;9.23;;
31692;SDS011;37436;53.230;6.614;2023-08-06T05:04:00;20.42;;;9.40;;
31692;SDS011;37436;53.230;6.614;2023-08-06T05:06:26;23.73;;;9.48;;
31692;SDS011;37436;53.230;6.614;2023-08-06T05:08:53;18.13;;;9.27;;
31692;SDS011;37436;53.230;6.614;2023-08-06T05:11:19;17.85;;;9.02;;
31692;SDS011;37436;53.230;6.614;2023-08-06T05:13:45;21.35;;;9.77;;
31692;SDS011;37436;53.230;6.614;2023-08-06T05:16:11;22.58;;;10.43;;
31692;SDS011;37436;53.230;6.614;2023-08-06T05:18:40;22.20;;;9.85;;
31692;SDS011;37436;53.230;6.614;2023-08-06T05:21:11;23.75;;;9.45;;
31692;SDS011;37436;53.230;6.614;2023-08-06T05:23:38;20.45;;;9.90;;
31692;SDS011;37436;53.230;6.614;2023-08-06T05:26:04;21.00;;;10.25;;
31692;SDS011;37436;53.230;6.614;2023-08-06T05:28:30;18.77;;;10.60;;
31692;SDS011;37436;53.230;6.614;2023-08-06T05:30:56;22.55;;;9.60;;
31692;SDS011;37436;53.230;6.614;2023-08-06T05:33:22;23.65;;;9.93;;
31692;SDS011;37436;53.230;6.614;2023-08-06T05:35:49;20.08;;;9.10;;
31692;SDS011;37436;53.230;6.614;2023-08-06T05:38:16;17.67;;;10.02;;
31692;SDS011;37436;53.230;6.614;2023-08-06T05:40:42;23.27;;;10.07;;
31692;SDS011;37436;53.230;6.614;2023-08-06T05:43:08;23.10;;;11.23;;
31692;SDS011;37436;53.230;6.614;2023-08-06T05:45:34;44.03;;;12.95;;
31692;SDS011;37436;53.230;6.614;2023-08-06T05:48:00;32.45;;;12.80;;
31692;SDS011;37436;53.230;6.614;2023-08-06T05:50:26;30.90;;;13.60;;
31692;SDS011;37436;53.230;6.614;2023-08-06T05:52:53;21.90;;;10.45;;
31692;SDS011;37436;53.230;6.614;2023-08-06T05:55:20;23.52;;;11.07;;
31692;SDS011;37436;53.230;6.614;2023-08-06T05:57:46;20.85;;;11.27;;
31692;SDS011;37436;53.230;6.614;2023-08-06T06:00:12;18.65;;;10.43;;
31692;SDS011;37436;53.230;6.614;2023-08-06T06:02:38;23.88;;;10.00;;
31692;SDS011;37436;53.230;6.614;2023-08-06T06:05:08;18.27;;;8.88;;
31692;SDS011;37436;53.230;6.614;2023-08-06T06:07:34;20.45;;;8.68;;
31692;SDS011;37436;53.230;6.614;2023-08-06T06:10:01;15.55;;;8.13;;
31692;SDS011;37436;53.230;6.614;2023-08-06T06:12:27;15.35;;;8.82;;
31692;SDS011;37436;53.230;6.614;2023-08-06T06:14:53;15.27;;;7.18;;
31692;SDS011;37436;53.230;6.614;2023-08-06T06:17:19;11.80;;;7.22;;
31692;SDS011;37436;53.230;6.614;2023-08-06T06:19:52;12.82;;;7.32;;
31692;SDS011;37436;53.230;6.614;2023-08-06T06:22:19;10.07;;;6.85;;
31692;SDS011;37436;53.230;6.614;2023-08-06T06:24:45;13.02;;;7.45;;
31692;SDS011;37436;53.230;6.614;2023-08-06T06:27:11;12.43;;;6.53;;
31692;SDS011;37436;53.230;6.614;2023-08-06T06:29:43;12.45;;;6.30;;
31692;SDS011;37436;53.230;6.614;2023-08-06T06:32:10;16.60;;;7.18;;
31692;SDS011;37436;53.230;6.614;2023-08-06T06:34:36;11.63;;;6.50;;
31692;SDS011;37436;53.230;6.614;2023-08-06T06:37:02;12.15;;;6.13;;
31692;SDS011;37436;53.230;6.614;2023-08-06T06:39:29;15.95;;;6.20;;
31692;SDS011;37436;53.230;6.614;2023-08-06T06:41:55;10.25;;;5.82;;
31692;SDS011;37436;53.230;6.614;2023-08-06T06:44:21;10.80;;;5.72;;
31692;SDS011;37436;53.230;6.614;2023-08-06T06:46:47;12.57;;;6.07;;
31692;SDS011;37436;53.230;6.614;2023-08-06T06:49:13;11.63;;;5.18;;
31692;SDS011;37436;53.230;6.614;2023-08-06T06:51:39;9.93;;;5.72;;
31692;SDS011;37436;53.230;6.614;2023-08-06T06:54:06;6.95;;;5.07;;
31692;SDS011;37436;53.230;6.614;2023-08-06T06:56:32;9.52;;;5.57;;
31692;SDS011;37436;53.230;6.614;2023-08-06T06:58:58;13.02;;;5.03;;
31692;SDS011;37436;53.230;6.614;2023-08-06T07:01:24;8.23;;;5.15;;
31692;SDS011;37436;53.230;6.614;2023-08-06T07:03:50;8.13;;;5.32;;
31692;SDS011;37436;53.230;6.614;2023-08-06T07:06:16;7.82;;;4.70;;
31692;SDS011;37436;53.230;6.614;2023-08-06T07:08:43;9.45;;;5.63;;
31692;SDS011;37436;53.230;6.614;2023-08-06T07:11:09;6.13;;;4.35;;
31692;SDS011;37436;53.230;6.614;2023-08-06T07:16:16;6.88;;;4.18;;
31692;SDS011;37436;53.230;6.614;2023-08-06T07:18:44;4.93;;;3.72;;
31692;SDS011;37436;53.230;6.614;2023-08-06T07:21:10;11.80;;;4.28;;
31692;SDS011;37436;53.230;6.614;2023-08-06T07:23:38;6.15;;;4.28;;
31692;SDS011;37436;53.230;6.614;2023-08-06T07:26:05;8.88;;;4.65;;
31692;SDS011;37436;53.230;6.614;2023-08-06T07:28:39;8.13;;;4.78;;
31692;SDS011;37436;53.230;6.614;2023-08-06T07:33:36;7.03;;;4.32;;
31692;SDS011;37436;53.230;6.614;2023-08-06T07:36:10;5.18;;;4.30;;
31692;SDS011;37436;53.230;6.614;2023-08-06T07:38:37;5.70;;;4.18;;
31692;SDS011;37436;53.230;6.614;2023-08-06T07:41:03;5.75;;;4.07;;
31692;SDS011;37436;53.230;6.614;2023-08-06T07:43:30;7.75;;;4.20;;
31692;SDS011;37436;53.230;6.614;2023-08-06T07:45:59;8.60;;;4.72;;
31692;SDS011;37436;53.230;6.614;2023-08-06T07:48:26;9.32;;;4.20;;
31692;SDS011;37436;53.230;6.614;2023-08-06T07:50:53;6.80;;;4.18;;
31692;SDS011;37436;53.230;6.614;2023-08-06T07:53:20;5.53;;;4.05;;
31692;SDS011;37436;53.230;6.614;2023-08-06T07:55:50;6.07;;;3.92;;
31692;SDS011;37436;53.230;6.614;2023-08-06T07:58:20;6.15;;;4.25;;
31692;SDS011;37436;53.230;6.614;2023-08-06T08:00:49;6.90;;;4.20;;
31692;SDS011;37436;53.230;6.614;2023-08-06T08:03:16;8.55;;;4.18;;
31692;SDS011;37436;53.230;6.614;2023-08-06T08:05:45;8.13;;;3.83;;
31692;SDS011;37436;53.230;6.614;2023-08-06T08:08:13;6.03;;;4.15;;
31692;SDS011;37436;53.230;6.614;2023-08-06T08:10:45;9.38;;;4.32;;
31692;SDS011;37436;53.230;6.614;2023-08-06T08:13:12;8.27;;;3.95;;
31692;SDS011;37436;53.230;6.614;2023-08-06T08:15:38;5.70;;;3.72;;
31692;SDS011;37436;53.230;6.614;2023-08-06T08:18:31;9.10;;;3.63;;
31692;SDS011;37436;53.230;6.614;2023-08-06T08:20:58;6.90;;;4.22;;
31692;SDS011;37436;53.230;6.614;2023-08-06T08:23:24;5.20;;;3.28;;
31692;SDS011;37436;53.230;6.614;2023-08-06T08:25:50;7.25;;;3.25;;
31692;SDS011;37436;53.230;6.614;2023-08-06T08:28:27;3.38;;;2.83;;
31692;SDS011;37436;53.230;6.614;2023-08-06T08:30:53;4.25;;;3.20;;
31692;SDS011;37436;53.230;6.614;2023-08-06T08:33:22;4.82;;;3.63;;
31692;SDS011;37436;53.230;6.614;2023-08-06T08:35:48;4.35;;;3.30;;
31692;SDS011;37436;53.230;6.614;2023-08-06T08:38:14;4.95;;;3.58;;
31692;SDS011;37436;53.230;6.614;2023-08-06T08:40:44;4.43;;;3.58;;
31692;SDS011;37436;53.230;6.614;2023-08-06T08:43:16;4.95;;;3.60;;
31692;SDS011;37436;53.230;6.614;2023-08-06T08:45:44;3.88;;;3.10;;
31692;SDS011;37436;53.230;6.614;2023-08-06T08:48:14;4.03;;;2.75;;
31692;SDS011;37436;53.230;6.614;2023-08-06T08:50:42;5.68;;;3.50;;
31692;SDS011;37436;53.230;6.614;2023-08-06T08:53:09;4.68;;;3.00;;
31692;SDS011;37436;53.230;6.614;2023-08-06T08:55:37;3.85;;;3.30;;
31692;SDS011;37436;53.230;6.614;2023-08-06T08:58:03;5.10;;;3.47;;
31692;SDS011;37436;53.230;6.614;2023-08-06T09:00:30;4.35;;;3.40;;
31692;SDS011;37436;53.230;6.614;2023-08-06T09:02:58;4.25;;;3.00;;
31692;SDS011;37436;53.230;6.614;2023-08-06T09:05:26;3.70;;;2.85;;
31692;SDS011;37436;53.230;6.614;2023-08-06T09:07:56;4.97;;;3.30;;
31692;SDS011;37436;53.230;6.614;2023-08-06T09:10:27;5.00;;;2.95;;
31692;SDS011;37436;53.230;6.614;2023-08-06T09:13:04;7.10;;;2.65;;
31692;SDS011;37436;53.230;6.614;2023-08-06T09:15:51;5.40;;;2.45;;
31692;SDS011;37436;53.230;6.614;2023-08-06T09:18:24;4.93;;;2.67;;
31692;SDS011;37436;53.230;6.614;2023-08-06T09:20:54;2.92;;;2.38;;
31692;SDS011;37436;53.230;6.614;2023-08-06T09:23:20;4.78;;;2.30;;
31692;SDS011;37436;53.230;6.614;2023-08-06T09:25:46;4.15;;;2.22;;
31692;SDS011;37436;53.230;6.614;2023-08-06T09:28:19;7.47;;;2.72;;
31692;SDS011;37436;53.230;6.614;2023-08-06T09:30:45;6.68;;;2.38;;
31692;SDS011;37436;53.230;6.614;2023-08-06T09:33:17;5.40;;;1.90;;
31692;SDS011;37436;53.230;6.614;2023-08-06T09:35:45;6.75;;;1.73;;
31692;SDS011;37436;53.230;6.614;2023-08-06T09:38:11;3.67;;;2.40;;
31692;SDS011;37436;53.230;6.614;2023-08-06T09:40:37;4.95;;;2.20;;
31692;SDS011;37436;53.230;6.614;2023-08-06T09:43:04;3.20;;;1.88;;
31692;SDS011;37436;53.230;6.614;2023-08-06T09:45:34;4.05;;;2.10;;
31692;SDS011;37436;53.230;6.614;2023-08-06T09:48:20;6.32;;;4.18;;
31692;SDS011;37436;53.230;6.614;2023-08-06T09:51:02;3.67;;;2.20;;
31692;SDS011;37436;53.230;6.614;2023-08-06T09:53:29;7.15;;;2.00;;
31692;SDS011;37436;53.230;6.614;2023-08-06T09:55:55;2.35;;;2.03;;
31692;SDS011;37436;53.230;6.614;2023-08-06T09:58:22;3.40;;;2.10;;
31692;SDS011;37436;53.230;6.614;2023-08-06T10:00:49;3.85;;;1.98;;
31692;SDS011;37436;53.230;6.614;2023-08-06T10:03:15;2.67;;;2.05;;
31692;SDS011;37436;53.230;6.614;2023-08-06T10:05:49;3.42;;;2.17;;
31692;SDS011;37436;53.230;6.614;2023-08-06T10:08:16;2.83;;;2.25;;
31692;SDS011;37436;53.230;6.614;2023-08-06T10:10:48;5.38;;;1.88;;
31692;SDS011;37436;53.230;6.614;2023-08-06T10:13:15;3.45;;;2.05;;
31692;SDS011;37436;53.230;6.614;2023-08-06T10:16:03;3.13;;;1.60;;
31692;SDS011;37436;53.230;6.614;2023-08-06T10:18:33;2.13;;;1.80;;
31692;SDS011;37436;53.230;6.614;2023-08-06T10:21:02;2.30;;;1.52;;
31692;SDS011;37436;53.230;6.614;2023-08-06T10:23:35;8.48;;;1.95;;
31692;SDS011;37436;53.230;6.614;2023-08-06T10:26:03;1.80;;;1.65;;
31692;SDS011;37436;53.230;6.614;2023-08-06T10:28:37;2.53;;;1.90;;
31692;SDS011;37436;53.230;6.614;2023-08-06T10:31:03;2.63;;;2.15;;
31692;SDS011;37436;53.230;6.614;2023-08-06T10:33:42;2.97;;;1.85;;
31692;SDS011;37436;53.230;6.614;2023-08-06T10:36:09;3.70;;;1.90;;
31692;SDS011;37436;53.230;6.614;2023-08-06T10:38:43;3.10;;;2.25;;
31692;SDS011;37436;53.230;6.614;2023-08-06T10:41:09;2.72;;;1.88;;
31692;SDS011;37436;53.230;6.614;2023-08-06T10:43:41;1.83;;;1.73;;
31692;SDS011;37436;53.230;6.614;2023-08-06T10:46:23;3.28;;;2.10;;
31692;SDS011;37436;53.230;6.614;2023-08-06T10:48:49;3.72;;;1.85;;
31692;SDS011;37436;53.230;6.614;2023-08-06T10:51:16;2.85;;;2.55;;
31692;SDS011;37436;53.230;6.614;2023-08-06T10:53:49;3.90;;;1.80;;
31692;SDS011;37436;53.230;6.614;2023-08-06T10:56:18;2.03;;;1.80;;
31692;SDS011;37436;53.230;6.614;2023-08-06T10:58:47;2.35;;;1.92;;
31692;SDS011;37436;53.230;6.614;2023-08-06T11:01:16;2.08;;;1.70;;
31692;SDS011;37436;53.230;6.614;2023-08-06T11:03:44;9.98;;;1.70;;
31692;SDS011;37436;53.230;6.614;2023-08-06T11:06:21;2.75;;;1.75;;
31692;SDS011;37436;53.230;6.614;2023-08-06T11:18:34;2.35;;;1.48;;
31692;SDS011;37436;53.230;6.614;2023-08-06T11:21:03;3.78;;;1.65;;
31692;SDS011;37436;53.230;6.614;2023-08-06T11:23:33;3.33;;;1.95;;
31692;SDS011;37436;53.230;6.614;2023-08-06T11:26:20;5.65;;;1.55;;
31692;SDS011;37436;53.230;6.614;2023-08-06T11:28:48;2.80;;;1.95;;
31692;SDS011;37436;53.230;6.614;2023-08-06T11:31:31;2.78;;;1.80;;
31692;SDS011;37436;53.230;6.614;2023-08-06T11:33:57;5.30;;;2.25;;
31692;SDS011;37436;53.230;6.614;2023-08-06T11:36:30;3.03;;;1.77;;
31692;SDS011;37436;53.230;6.614;2023-08-06T11:38:56;5.63;;;2.50;;
31692;SDS011;37436;53.230;6.614;2023-08-06T11:41:22;2.65;;;2.03;;
31692;SDS011;37436;53.230;6.614;2023-08-06T11:44:00;2.45;;;1.85;;
31692;SDS011;37436;53.230;6.614;2023-08-06T11:46:27;3.30;;;1.80;;
31692;SDS011;37436;53.230;6.614;2023-08-06T11:48:54;4.25;;;1.85;;
31692;SDS011;37436;53.230;6.614;2023-08-06T11:51:24;3.80;;;2.13;;
31692;SDS011;37436;53.230;6.614;2023-08-06T11:54:10;1.98;;;1.70;;
31692;SDS011;37436;53.230;6.614;2023-08-06T11:56:38;2.50;;;1.90;;
31692;SDS011;37436;53.230;6.614;2023-08-06T11:59:04;2.25;;;1.80;;
31692;SDS011;37436;53.230;6.614;2023-08-06T12:01:30;3.30;;;1.70;;
31692;SDS011;37436;53.230;6.614;2023-08-06T12:04:00;2.80;;;1.85;;
31692;SDS011;37436;53.230;6.614;2023-08-06T12:06:27;2.97;;;1.90;;
31692;SDS011;37436;53.230;6.614;2023-08-06T12:09:04;3.13;;;2.22;;
31692;SDS011;37436;53.230;6.614;2023-08-06T12:11:33;4.13;;;1.70;;
31692;SDS011;37436;53.230;6.614;2023-08-06T12:13:59;4.78;;;2.10;;
31692;SDS011;37436;53.230;6.614;2023-08-06T12:16:25;2.03;;;1.77;;
31692;SDS011;37436;53.230;6.614;2023-08-06T12:18:51;2.40;;;1.90;;
31692;SDS011;37436;53.230;6.614;2023-08-06T12:21:18;2.65;;;1.65;;
31692;SDS011;37436;53.230;6.614;2023-08-06T12:23:44;4.10;;;1.50;;
31692;SDS011;37436;53.230;6.614;2023-08-06T12:26:12;3.80;;;1.80;;
31692;SDS011;37436;53.230;6.614;2023-08-06T12:28:46;3.00;;;1.90;;
31692;SDS011;37436;53.230;6.614;2023-08-06T12:31:12;3.03;;;2.10;;
31692;SDS011;37436;53.230;6.614;2023-08-06T12:33:38;2.28;;;1.90;;
31692;SDS011;37436;53.230;6.614;2023-08-06T12:36:08;2.58;;;1.90;;
31692;SDS011;37436;53.230;6.614;2023-08-06T12:38:34;2.10;;;1.90;;
31692;SDS011;37436;53.230;6.614;2023-08-06T12:41:00;2.65;;;1.55;;
31692;SDS011;37436;53.230;6.614;2023-08-06T12:43:27;3.03;;;1.92;;
31692;SDS011;37436;53.230;6.614;2023-08-06T12:45:54;2.83;;;1.92;;
31692;SDS011;37436;53.230;6.614;2023-08-06T12:48:20;2.17;;;1.90;;
31692;SDS011;37436;53.230;6.614;2023-08-06T12:50:46;3.45;;;3.15;;
31692;SDS011;37436;53.230;6.614;2023-08-06T12:53:16;1.85;;;1.50;;
31692;SDS011;37436;53.230;6.614;2023-08-06T12:55:42;1.92;;;1.73;;
31692;SDS011;37436;53.230;6.614;2023-08-06T12:58:08;1.58;;;1.48;;
31692;SDS011;37436;53.230;6.614;2023-08-06T13:00:34;2.47;;;1.92;;
31692;SDS011;37436;53.230;6.614;2023-08-06T13:03:12;3.10;;;1.80;;
31692;SDS011;37436;53.230;6.614;2023-08-06T13:08:04;1.58;;;1.48;;
31692;SDS011;37436;53.230;6.614;2023-08-06T13:10:31;2.58;;;1.63;;
31692;SDS011;37436;53.230;6.614;2023-08-06T13:12:57;5.40;;;1.70;;
31692;SDS011;37436;53.230;6.614;2023-08-06T13:15:26;1.88;;;1.45;;
31692;SDS011;37436;53.230;6.614;2023-08-06T13:17:52;4.55;;;1.70;;
31692;SDS011;37436;53.230;6.614;2023-08-06T13:20:19;1.70;;;1.60;;
31692;SDS011;37436;53.230;6.614;2023-08-06T13:22:45;5.60;;;1.83;;
31692;SDS011;37436;53.230;6.614;2023-08-06T13:25:15;4.95;;;1.60;;
31692;SDS011;37436;53.230;6.614;2023-08-06T13:27:43;2.40;;;1.92;;
31692;SDS011;37436;53.230;6.614;2023-08-06T13:30:11;5.07;;;1.88;;
31692;SDS011;37436;53.230;6.614;2023-08-06T13:32:44;2.40;;;1.70;;
31692;SDS011;37436;53.230;6.614;2023-08-06T13:35:10;1.60;;;1.50;;
31692;SDS011;37436;53.230;6.614;2023-08-06T13:37:36;2.10;;;1.50;;
31692;SDS011;37436;53.230;6.614;2023-08-06T13:40:02;2.00;;;1.80;;
31692;SDS011;37436;53.230;6.614;2023-08-06T13:42:29;2.80;;;1.65;;
31692;SDS011;37436;53.230;6.614;2023-08-06T13:44:57;1.90;;;1.40;;
31692;SDS011;37436;53.230;6.614;2023-08-06T13:47:28;4.40;;;1.33;;
31692;SDS011;37436;53.230;6.614;2023-08-06T13:49:54;2.10;;;1.48;;
31692;SDS011;37436;53.230;6.614;2023-08-06T13:52:20;3.22;;;1.67;;
31692;SDS011;37436;53.230;6.614;2023-08-06T13:54:47;2.72;;;1.65;;
31692;SDS011;37436;53.230;6.614;2023-08-06T13:57:14;2.45;;;1.90;;
31692;SDS011;37436;53.230;6.614;2023-08-06T13:59:49;3.40;;;1.45;;
31692;SDS011;37436;53.230;6.614;2023-08-06T14:02:15;3.78;;;1.77;;
31692;SDS011;37436;53.230;6.614;2023-08-06T14:04:41;4.43;;;1.70;;
31692;SDS011;37436;53.230;6.614;2023-08-06T14:07:07;1.92;;;1.63;;
31692;SDS011;37436;53.230;6.614;2023-08-06T14:09:40;2.20;;;1.60;;
31692;SDS011;37436;53.230;6.614;2023-08-06T14:12:07;2.42;;;1.58;;
31692;SDS011;37436;53.230;6.614;2023-08-06T14:14:40;1.60;;;1.40;;
31692;SDS011;37436;53.230;6.614;2023-08-06T14:17:06;1.90;;;1.80;;
31692;SDS011;37436;53.230;6.614;2023-08-06T14:19:32;2.30;;;1.58;;
31692;SDS011;37436;53.230;6.614;2023-08-06T14:21:58;2.95;;;1.90;;
31692;SDS011;37436;53.230;6.614;2023-08-06T14:24:40;3.17;;;1.67;;
31692;SDS011;37436;53.230;6.614;2023-08-06T14:27:06;2.00;;;1.80;;
31692;SDS011;37436;53.230;6.614;2023-08-06T14:29:42;2.00;;;1.60;;
31692;SDS011;37436;53.230;6.614;2023-08-06T14:32:15;2.65;;;1.88;;
31692;SDS011;37436;53.230;6.614;2023-08-06T14:34:43;1.67;;;1.42;;
31692;SDS011;37436;53.230;6.614;2023-08-06T14:37:10;1.40;;;1.30;;
31692;SDS011;37436;53.230;6.614;2023-08-06T14:39:36;1.92;;;1.58;;
31692;SDS011;37436;53.230;6.614;2023-08-06T14:42:03;2.47;;;1.63;;
31692;SDS011;37436;53.230;6.614;2023-08-06T14:44:29;2.83;;;1.60;;
31692;SDS011;37436;53.230;6.614;2023-08-06T14:46:55;4.32;;;2.10;;
31692;SDS011;37436;53.230;6.614;2023-08-06T14:49:22;3.50;;;1.45;;
31692;SDS011;37436;53.230;6.614;2023-08-06T14:51:48;2.10;;;1.50;;
31692;SDS011;37436;53.230;6.614;2023-08-06T14:54:15;2.22;;;1.88;;
31692;SDS011;37436;53.230;6.614;2023-08-06T14:56:41;3.15;;;1.60;;
31692;SDS011;37436;53.230;6.614;2023-08-06T14:59:07;3.13;;;1.60;;
31692;SDS011;37436;53.230;6.614;2023-08-06T15:01:33;3.38;;;1.58;;
31692;SDS011;37436;53.230;6.614;2023-08-06T15:03:59;3.58;;;1.60;;
31692;SDS011;37436;53.230;6.614;2023-08-06T15:06:26;3.22;;;1.30;;
31692;SDS011;37436;53.230;6.614;2023-08-06T15:08:52;4.47;;;1.30;;
31692;SDS011;37436;53.230;6.614;2023-08-06T15:11:23;2.17;;;1.85;;